Canadian Warship 707 — CGBV — position and weather

sailwx.info

Track history (hours):
 
Tides and Currents Weather Stations Pressure Air Temp Water Temp Dewpoint Dewpoint Depression Visibility Wind Speed Wind Dir Waves Ship Positions

Canadian Warship 707

Last reported at 2015-Feb-13 07:24 UTC. Time now 2015-Mar-04 16:52 UTC.
Position N 24°33' W 081°49'.
Warning: this ship's position is 19 days out of date.

Length 55 m; draft 3.3 m.

Type: Military. MMSI: 316200000.

Date/timePositionNaut miles runAvg speedWind from/ knotsBaromVisibWave heightAir tempDewpointWater temp
2015-Feb-13 07:24N 24°33' W 081°49'0 0.0
2015-Feb-13 05:28N 24°33' W 081°49'  
2015-Feb-09 04:33N 25°43' W 079°50'5 4.8
2015-Feb-09 03:33N 25°47' W 079°49'4 4.3
2015-Feb-09 02:33N 25°52' W 079°48'5 5.0
2015-Feb-09 01:33N 25°57' W 079°47'5 5.0
2015-Feb-09 00:33N 26°01' W 079°47'5 5.0
2015-Feb-08 23:33N 26°06' W 079°46'5 5.3
2015-Feb-08 22:33N 26°12' W 079°45'6 5.6
2015-Feb-08 21:33N 26°17' W 079°44'6 5.5
2015-Feb-08 20:33N 26°23' W 079°43'6 5.9
2015-Feb-08 19:33N 26°28' W 079°42'6 6.2
2015-Feb-08 18:33N 26°35' W 079°43'  
Track history (hours):
 
Tides and Currents Weather Stations Pressure Air Temp Water Temp Dewpoint Dewpoint Depression Visibility Wind Speed Wind Dir Waves Ship Positions

Canadian Warship 707

Last reported at 2015-Feb-13 07:24 UTC. Time now 2015-Mar-04 16:52 UTC.
Position N 24°33' W 081°49'.
Warning: this ship's position is 19 days out of date.

Length 55 m; draft 3.3 m.

Type: Military. MMSI: 316200000.

Date/timePositionNaut miles runAvg speedWind from/ knotsBaromVisibWave heightAir tempDewpointWater temp
2015-Feb-13 07:24N 24°33' W 081°49'0 0.0
2015-Feb-13 05:28N 24°33' W 081°49'  
2015-Feb-09 04:33N 25°43' W 079°50'5 4.8
2015-Feb-09 03:33N 25°47' W 079°49'4 4.3
2015-Feb-09 02:33N 25°52' W 079°48'5 5.0
2015-Feb-09 01:33N 25°57' W 079°47'5 5.0
2015-Feb-09 00:33N 26°01' W 079°47'5 5.0
2015-Feb-08 23:33N 26°06' W 079°46'5 5.3
2015-Feb-08 22:33N 26°12' W 079°45'6 5.6
2015-Feb-08 21:33N 26°17' W 079°44'6 5.5
2015-Feb-08 20:33N 26°23' W 079°43'6 5.9
2015-Feb-08 19:33N 26°28' W 079°42'6 6.2
2015-Feb-08 18:33N 26°35' W 079°43'  

Dump ship's entire track history